Pagrindinis puslapis
METAR-TAF:

METAR-TAF

Oro uostai :

El Palomar, Argentina

platuma: 34-36S, ilguma: 058-36W, Aukštis: 18 m

Dabartinis oras

Ataskaita buvo paskelbta 19 minutes, ne 18:12 UTC
Vėjas 20 kt iš Pietryčių su gūsio iki 29 kt
Temperatūra 30°C
Drėgmė 46%
Slėgis 1007 hPa
Matomumas 10 km arba daugiau
nėra debesų žemiau 1500 m ir nėra kamuolinių lietaus debesų

METAR: SADP 241812Z 14020G29KT CAVOK 30/17 Q1007

Laikas: 15:31 (18:31 UTC)


TAF: trūkstamas

Orai ataskaitas ir orų prognozės (METAR, TAF).

turimą stotys yra geltonos ir raudonos taškus žemėlapyje.

Perkelti pele per norėdami pamatyti stoties vardą.

Tada spustelėkite, norėdami matyti oro stebėjimo ir prognozės.

Norėdami pakeisti žemėlapį: spustelėkite ant žalios mygtukų su juodo kryžiaus žemyn,; žalią mygtuką su brūkšneliu, jei norite nutolinti; arba žalių rodyklių gretimoms žemėlapius.


METAR-TAF: